Terminal Aerodrome Forecast
Issued by NWS

Home | Current Version | Previous Version | Text Only | Print | Product List | Glossary On
Versions: 1 2 3 4 5 6 7 8 9 10 11 12 13 14 15 16 17 18 19 20 21 22 23 24 25 26 27 28 29 30 31 32 33
000
FTUS43 KDTX 291732
TAFYIP
TAF
KYIP 291732Z 2918/3018 16005KT 6SM -SHRA SCT050 OVC100
     FM292200 14005KT P6SM BKN045 OVC080
      TEMPO 2922/3001 4SM -RA SCT025 OVC045
     FM300500 12005KT 3SM BR SCT045
     FM301000 VRB03KT 1SM BR BKN015
     FM301400 23005KT 3SM BR BKN025
     FM301600 23007KT P6SM BKN045=

USA.gov is the U.S. government's official web portal to all federal, state and local government web resources and services.